sensor_id;sensor_type;location;lat;lon;timestamp;pressure;altitude;pressure_sealevel;temperature;humidity
3832;BME280;12460;42.662;23.288;2023-04-15T00:02:36;93785.19;;;10.18;55.19
3832;BME280;12460;42.662;23.288;2023-04-15T00:17:41;93789.50;;;10.28;57.56
3832;BME280;12460;42.662;23.288;2023-04-15T00:32:46;93788.94;;;10.39;58.68
3832;BME280;12460;42.662;23.288;2023-04-15T00:47:56;93786.75;;;10.47;59.35
3832;BME280;12460;42.662;23.288;2023-04-15T01:03:01;93789.16;;;9.78;58.24
3832;BME280;12460;42.662;23.288;2023-04-15T01:18:05;93801.44;;;9.83;57.61
3832;BME280;12460;42.662;23.288;2023-04-15T01:33:13;93788.19;;;9.93;57.75
3832;BME280;12460;42.662;23.288;2023-04-15T01:48:17;93788.00;;;9.81;58.89
3832;BME280;12460;42.662;23.288;2023-04-15T02:03:23;93812.59;;;9.64;59.03
3832;BME280;12460;42.662;23.288;2023-04-15T02:18:28;93792.91;;;9.54;59.88
3832;BME280;12460;42.662;23.288;2023-04-15T02:33:33;93795.97;;;9.49;60.61
3832;BME280;12460;42.662;23.288;2023-04-15T02:48:37;93800.69;;;9.46;61.01
3832;BME280;12460;42.662;23.288;2023-04-15T03:03:42;93810.38;;;9.36;61.34
3832;BME280;12460;42.662;23.288;2023-04-15T03:18:46;93825.19;;;9.19;61.32
3832;BME280;12460;42.662;23.288;2023-04-15T03:33:52;93835.53;;;8.99;61.45
3832;BME280;12460;42.662;23.288;2023-04-15T03:48:57;93867.91;;;8.93;61.86
3832;BME280;12460;42.662;23.288;2023-04-15T04:04:02;93873.81;;;10.84;57.67
3832;BME280;12460;42.662;23.288;2023-04-15T04:19:07;93883.09;;;16.00;46.22
3832;BME280;12460;42.662;23.288;2023-04-15T04:34:10;93864.59;;;20.08;37.47
3832;BME280;12460;42.662;23.288;2023-04-15T04:49:15;93880.47;;;22.01;33.00
3832;BME280;12460;42.662;23.288;2023-04-15T05:04:19;93908.78;;;22.78;30.97
3832;BME280;12460;42.662;23.288;2023-04-15T05:19:24;93932.59;;;23.30;28.32
3832;BME280;12460;42.662;23.288;2023-04-15T05:34:29;93920.34;;;21.56;30.92
3832;BME280;12460;42.662;23.288;2023-04-15T05:49:34;93912.91;;;20.55;31.78
3832;BME280;12460;42.662;23.288;2023-04-15T06:04:39;93941.72;;;21.33;31.95
3832;BME280;12460;42.662;23.288;2023-04-15T06:19:42;93940.59;;;19.66;33.19
3832;BME280;12460;42.662;23.288;2023-04-15T06:34:47;93962.50;;;21.73;30.57
3832;BME280;12460;42.662;23.288;2023-04-15T06:49:51;93977.03;;;23.05;28.74
3832;BME280;12460;42.662;23.288;2023-04-15T07:04:56;93975.44;;;21.94;29.70
3832;BME280;12460;42.662;23.288;2023-04-15T07:20:00;93978.56;;;21.63;29.65
3832;BME280;12460;42.662;23.288;2023-04-15T07:35:05;93977.56;;;22.35;28.66
3832;BME280;12460;42.662;23.288;2023-04-15T07:50:10;93981.69;;;21.51;29.77
3832;BME280;12460;42.662;23.288;2023-04-15T08:05:14;94002.19;;;23.07;27.31
3832;BME280;12460;42.662;23.288;2023-04-15T08:20:19;93999.13;;;23.01;27.03
3832;BME280;12460;42.662;23.288;2023-04-15T08:35:24;93989.94;;;24.01;24.64
3832;BME280;12460;42.662;23.288;2023-04-15T08:50:31;93989.66;;;23.65;23.87
3832;BME280;12460;42.662;23.288;2023-04-15T09:05:36;93961.41;;;24.90;22.37
3832;BME280;12460;42.662;23.288;2023-04-15T09:20:41;93937.13;;;24.40;20.20
3832;BME280;12460;42.662;23.288;2023-04-15T09:36:04;93943.25;;;24.54;19.88
3832;BME280;12460;42.662;23.288;2023-04-15T09:51:10;93935.06;;;25.02;19.09
3832;BME280;12460;42.662;23.288;2023-04-15T10:06:14;93934.72;;;21.97;21.69
3832;BME280;12460;42.662;23.288;2023-04-15T10:21:18;93929.50;;;22.11;21.13
3832;BME280;12460;42.662;23.288;2023-04-15T10:36:25;93912.59;;;24.09;20.46
3832;BME280;12460;42.662;23.288;2023-04-15T10:51:31;93908.72;;;23.47;20.55
3832;BME280;12460;42.662;23.288;2023-04-15T11:06:44;93894.78;;;24.14;20.36
3832;BME280;12460;42.662;23.288;2023-04-15T11:21:49;93890.06;;;24.55;19.74
3832;BME280;12460;42.662;23.288;2023-04-15T11:36:56;93885.25;;;24.36;21.45
3832;BME280;12460;42.662;23.288;2023-04-15T11:52:11;93897.19;;;24.24;21.21
3832;BME280;12460;42.662;23.288;2023-04-15T12:07:16;93877.09;;;24.26;21.94
3832;BME280;12460;42.662;23.288;2023-04-15T12:22:21;93878.41;;;24.19;20.62
3832;BME280;12460;42.662;23.288;2023-04-15T12:37:25;93899.78;;;23.86;21.27
3832;BME280;12460;42.662;23.288;2023-04-15T12:52:30;93890.31;;;24.07;21.71
3832;BME280;12460;42.662;23.288;2023-04-15T13:07:35;93905.91;;;22.35;20.88
3832;BME280;12460;42.662;23.288;2023-04-15T13:22:40;93893.13;;;22.59;22.07
3832;BME280;12460;42.662;23.288;2023-04-15T13:37:46;93890.59;;;22.26;22.46
3832;BME280;12460;42.662;23.288;2023-04-15T13:52:50;93874.06;;;22.68;22.17
3832;BME280;12460;42.662;23.288;2023-04-15T14:07:55;93854.28;;;22.33;22.73
3832;BME280;12460;42.662;23.288;2023-04-15T14:22:59;93872.03;;;21.86;22.98
3832;BME280;12460;42.662;23.288;2023-04-15T14:38:04;93860.38;;;21.80;21.96
3832;BME280;12460;42.662;23.288;2023-04-15T14:53:14;93865.16;;;21.73;23.45
3832;BME280;12460;42.662;23.288;2023-04-15T15:08:19;93858.03;;;20.96;23.35
3832;BME280;12460;42.662;23.288;2023-04-15T15:23:23;93845.72;;;20.91;24.26
3832;BME280;12460;42.662;23.288;2023-04-15T15:38:26;93849.06;;;20.66;24.45
3832;BME280;12460;42.662;23.288;2023-04-15T15:53:30;93853.00;;;20.04;25.17
3832;BME280;12460;42.662;23.288;2023-04-15T16:08:34;93858.22;;;19.41;25.82
3832;BME280;12460;42.662;23.288;2023-04-15T16:23:39;93849.06;;;19.11;26.17
3832;BME280;12460;42.662;23.288;2023-04-15T16:38:43;93843.56;;;18.84;26.87
3832;BME280;12460;42.662;23.288;2023-04-15T16:53:51;93855.81;;;18.26;27.52
3832;BME280;12460;42.662;23.288;2023-04-15T17:08:56;93867.00;;;17.64;27.91
3832;BME280;12460;42.662;23.288;2023-04-15T17:24:01;93884.91;;;17.25;28.60
3832;BME280;12460;42.662;23.288;2023-04-15T17:39:06;93909.97;;;17.02;29.20
3832;BME280;12460;42.662;23.288;2023-04-15T17:54:10;93921.53;;;16.79;30.38
3832;BME280;12460;42.662;23.288;2023-04-15T18:09:15;93940.09;;;16.68;30.52
3832;BME280;12460;42.662;23.288;2023-04-15T18:24:20;93945.28;;;16.46;30.93
3832;BME280;12460;42.662;23.288;2023-04-15T18:39:26;93952.91;;;16.30;31.83
3832;BME280;12460;42.662;23.288;2023-04-15T18:54:30;93961.00;;;16.11;32.55
3832;BME280;12460;42.662;23.288;2023-04-15T19:09:35;93951.22;;;15.88;32.72
3832;BME280;12460;42.662;23.288;2023-04-15T19:24:40;93962.84;;;15.69;33.88
3832;BME280;12460;42.662;23.288;2023-04-15T19:39:45;93969.44;;;15.25;35.32
3832;BME280;12460;42.662;23.288;2023-04-15T19:54:48;93988.00;;;14.71;36.34
3832;BME280;12460;42.662;23.288;2023-04-15T20:09:52;93983.59;;;14.91;36.31
3832;BME280;12460;42.662;23.288;2023-04-15T20:24:56;93996.38;;;15.15;36.09
3832;BME280;12460;42.662;23.288;2023-04-15T20:40:00;94006.25;;;15.25;36.61
3832;BME280;12460;42.662;23.288;2023-04-15T20:55:06;94000.59;;;15.25;36.57
3832;BME280;12460;42.662;23.288;2023-04-15T21:10:11;94006.03;;;15.21;36.56
3832;BME280;12460;42.662;23.288;2023-04-15T21:25:14;94012.03;;;15.16;37.66
3832;BME280;12460;42.662;23.288;2023-04-15T21:40:18;94018.03;;;14.87;38.85
3832;BME280;12460;42.662;23.288;2023-04-15T21:55:23;94025.03;;;14.30;40.14
3832;BME280;12460;42.662;23.288;2023-04-15T22:10:27;94036.22;;;14.07;40.03
3832;BME280;12460;42.662;23.288;2023-04-15T22:25:32;94040.94;;;13.72;42.49
3832;BME280;12460;42.662;23.288;2023-04-15T22:40:36;94037.03;;;13.77;45.47
3832;BME280;12460;42.662;23.288;2023-04-15T22:55:47;94032.88;;;13.78;46.55
3832;BME280;12460;42.662;23.288;2023-04-15T23:10:52;94016.88;;;13.71;46.48
3832;BME280;12460;42.662;23.288;2023-04-15T23:25:57;94025.78;;;13.46;45.99
3832;BME280;12460;42.662;23.288;2023-04-15T23:41:01;94024.03;;;13.41;45.48
3832;BME280;12460;42.662;23.288;2023-04-15T23:56:05;94011.59;;;12.94;46.72
